createdAt,value
2018-05-14T00:00:11.804Z,98.67
2018-05-14T00:01:12.635Z,97.90
2018-05-14T00:02:11.878Z,98.48
2018-05-14T00:03:11.799Z,97.90
2018-05-14T00:04:11.763Z,98.57
2018-05-14T00:05:12.541Z,97.90
2018-05-14T00:06:11.802Z,99.15
2018-05-14T00:07:12.175Z,99.15
2018-05-14T00:08:11.817Z,99.15
2018-05-14T00:09:11.778Z,98.77
2018-05-14T00:10:11.868Z,98.10
2018-05-14T00:11:11.799Z,97.81
2018-05-14T00:12:12.475Z,98.28
2018-05-14T00:13:11.813Z,98.77
2018-05-14T00:14:12.491Z,99.34
2018-05-14T00:15:12.515Z,98.00
2018-05-14T00:16:11.800Z,98.57
2018-05-14T00:17:11.840Z,97.90
2018-05-14T00:18:13.594Z,98.19
2018-05-14T00:19:11.941Z,97.90
2018-05-14T00:20:11.803Z,97.90
2018-05-14T00:21:11.934Z,98.10
2018-05-14T00:22:11.900Z,99.15
2018-05-14T00:23:12.549Z,98.57
2018-05-14T00:24:11.944Z,98.96
2018-05-14T00:25:12.519Z,98.48
2018-05-14T00:26:11.874Z,98.48
2018-05-14T00:27:11.966Z,97.90
2018-05-14T00:28:11.962Z,98.96
2018-05-14T00:29:11.791Z,98.67
2018-05-14T00:30:11.875Z,98.96
2018-05-14T00:31:11.821Z,99.44
2018-05-14T00:32:11.854Z,99.91
2018-05-14T00:33:11.885Z,98.96
2018-05-14T00:34:12.768Z,98.67
2018-05-14T00:35:11.813Z,99.34
2018-05-14T00:40:58.276Z,99.05
2018-05-14T00:41:55.993Z,99.05
2018-05-14T00:43:49.282Z,99.05
2018-05-14T00:44:49.787Z,99.63
2018-05-14T00:46:43.318Z,99.91
2018-05-14T00:47:44.430Z,99.44
2018-05-14T00:49:38.407Z,99.24
2018-05-14T00:50:38.536Z,98.77
2018-05-14T00:52:31.689Z,99.99
2018-05-14T00:53:32.424Z,99.53
2018-05-14T00:55:27.777Z,99.63
2018-05-14T00:56:27.443Z,99.73
2018-05-14T00:58:21.572Z,99.91
2018-05-14T00:59:21.228Z,99.82
2018-05-14T01:01:15.421Z,99.99
2018-05-14T01:02:15.401Z,99.99
2018-05-14T01:04:10.146Z,99.99
2018-05-14T01:05:08.897Z,99.53
2018-05-14T01:07:03.751Z,99.99
2018-05-14T01:08:03.153Z,99.91
2018-05-14T01:09:58.285Z,99.99
2018-05-14T01:10:57.340Z,99.99
2018-05-14T01:12:51.438Z,99.99
2018-05-14T01:13:52.540Z,99.99
2018-05-14T01:15:47.121Z,99.99
2018-05-14T01:16:46.377Z,99.99
2018-05-14T01:18:41.195Z,99.99
2018-05-14T01:19:41.918Z,99.99
2018-05-14T01:21:34.443Z,99.99
2018-05-14T01:22:35.126Z,99.99
2018-05-14T01:24:31.675Z,99.99
2018-05-14T01:25:28.614Z,99.99
2018-05-14T01:27:24.165Z,99.99
2018-05-14T01:28:23.468Z,99.99
2018-05-14T01:30:18.033Z,99.99
2018-05-14T01:31:16.957Z,99.99
2018-05-14T01:33:11.598Z,99.99
2018-05-14T01:34:11.952Z,99.99
2018-05-14T01:36:06.043Z,99.99
2018-05-14T01:37:08.684Z,99.99
2018-05-14T01:39:02.486Z,99.99
2018-05-14T01:40:00.036Z,99.99
2018-05-14T01:41:54.736Z,99.99
2018-05-14T01:43:04.532Z,99.99
2018-05-14T01:44:50.648Z,99.99
2018-05-14T01:45:49.351Z,99.53
2018-05-14T01:47:45.504Z,99.91
2018-05-14T01:48:45.514Z,99.82
2018-05-14T01:50:39.533Z,99.99
2018-05-14T01:51:39.273Z,98.86
2018-05-14T01:53:33.479Z,99.99
2018-05-14T01:54:33.442Z,99.99
2018-05-14T01:56:27.279Z,99.99
2018-05-14T01:57:27.299Z,99.99
2018-05-14T01:59:21.833Z,99.91
2018-05-14T02:00:21.873Z,99.05
2018-05-14T02:02:16.026Z,98.96
2018-05-14T02:03:16.453Z,99.34
2018-05-14T02:05:10.586Z,99.99
2018-05-14T02:06:11.060Z,99.99
2018-05-14T02:08:04.577Z,99.99
2018-05-14T02:09:04.874Z,99.99
2018-05-14T02:10:58.909Z,99.99
2018-05-14T02:11:58.994Z,99.99
2018-05-14T02:13:53.913Z,99.99
2018-05-14T02:14:54.153Z,99.99
2018-05-14T02:16:48.408Z,99.99
2018-05-14T02:17:48.789Z,99.99
2018-05-14T02:19:42.815Z,99.99
2018-05-14T02:20:42.951Z,99.99
2018-05-14T02:22:38.609Z,99.99
2018-05-14T02:23:38.960Z,99.99
2018-05-14T02:25:31.636Z,99.99
2018-05-14T02:26:31.776Z,99.99
2018-05-14T02:28:27.615Z,99.99
2018-05-14T02:29:26.069Z,99.99
2018-05-14T02:31:20.266Z,99.99
2018-05-14T02:32:20.662Z,99.99
2018-05-14T02:33:20.665Z,99.99
2018-05-14T02:34:20.682Z,99.99
2018-05-14T02:35:20.644Z,99.99
2018-05-14T02:36:20.760Z,99.99
2018-05-14T02:37:20.630Z,99.99
2018-05-14T02:38:20.647Z,99.99
2018-05-14T02:39:20.662Z,99.99
2018-05-14T02:40:20.639Z,99.99
2018-05-14T02:41:20.661Z,99.99
2018-05-14T02:42:20.618Z,99.99
2018-05-14T02:43:20.645Z,99.99
2018-05-14T02:44:20.623Z,99.99
2018-05-14T02:45:20.676Z,99.73
2018-05-14T02:46:20.713Z,99.99
2018-05-14T02:47:20.734Z,99.99
2018-05-14T02:48:20.709Z,99.99
2018-05-14T02:49:20.722Z,99.99
2018-05-14T02:50:20.676Z,99.91
2018-05-14T02:51:20.646Z,99.73
2018-05-14T02:52:20.763Z,99.91
2018-05-14T02:53:20.679Z,99.82
2018-05-14T02:54:22.845Z,99.99
2018-05-14T02:55:20.850Z,99.99
2018-05-14T02:56:20.726Z,99.99
2018-05-14T02:57:20.720Z,99.99
2018-05-14T02:58:20.249Z,99.99
2018-05-14T02:59:20.715Z,99.99
2018-05-14T03:00:20.666Z,99.99
2018-05-14T03:01:20.710Z,99.99
2018-05-14T03:02:20.681Z,99.99
2018-05-14T03:03:20.708Z,99.99
2018-05-14T03:04:20.646Z,99.63
2018-05-14T03:05:20.691Z,99.99
2018-05-14T03:06:20.713Z,99.99
2018-05-14T03:07:20.659Z,99.99
2018-05-14T03:08:20.696Z,99.99
2018-05-14T03:09:20.677Z,99.99
2018-05-14T03:10:20.725Z,99.99
2018-05-14T03:11:20.718Z,99.73
2018-05-14T03:12:20.740Z,98.96
2018-05-14T03:13:20.717Z,99.91
2018-05-14T03:14:20.734Z,99.63
2018-05-14T03:15:20.752Z,99.99
2018-05-14T03:16:20.659Z,99.99
2018-05-14T03:17:20.669Z,99.99
2018-05-14T03:18:20.719Z,99.99
2018-05-14T03:19:20.716Z,99.99
2018-05-14T03:20:20.740Z,99.99
2018-05-14T03:21:20.717Z,99.99
2018-05-14T03:22:20.691Z,99.99
2018-05-14T03:23:20.710Z,99.99
2018-05-14T03:24:20.667Z,99.99
2018-05-14T03:25:20.728Z,99.99
2018-05-14T03:26:20.680Z,99.99
2018-05-14T03:27:20.844Z,99.82
2018-05-14T03:28:20.676Z,99.68
2018-05-14T03:29:20.663Z,99.53
2018-05-14T03:30:20.665Z,99.82
2018-05-14T03:31:20.680Z,99.53
2018-05-14T03:32:20.657Z,99.99
2018-05-14T03:33:20.723Z,99.99
2018-05-14T03:34:21.186Z,99.96
2018-05-14T03:35:20.209Z,99.99
2018-05-14T03:36:20.666Z,99.99
2018-05-14T03:37:20.719Z,99.99
2018-05-14T03:38:20.231Z,99.99
2018-05-14T03:39:20.629Z,99.99
2018-05-14T03:40:20.686Z,99.96
2018-05-14T03:41:20.637Z,99.99
2018-05-14T03:42:20.677Z,99.99
2018-05-14T03:43:20.854Z,99.73
2018-05-14T03:44:20.678Z,99.87
2018-05-14T03:45:20.635Z,99.87
2018-05-14T03:46:20.911Z,99.99
2018-05-14T03:47:20.682Z,99.91
2018-05-14T03:48:20.605Z,99.99
2018-05-14T03:49:21.499Z,99.87
2018-05-14T03:50:21.206Z,99.39
2018-05-14T03:51:20.849Z,99.53
2018-05-14T03:52:20.563Z,99.34
2018-05-14T03:53:20.601Z,98.91
2018-05-14T03:54:20.859Z,98.91
2018-05-14T03:55:20.620Z,99.48
2018-05-14T03:56:20.611Z,98.62
2018-05-14T03:57:20.628Z,99.39
2018-05-14T03:58:20.730Z,99.48
2018-05-14T03:59:20.730Z,99.05
2018-05-14T04:00:20.623Z,98.43
2018-05-14T04:01:20.237Z,98.91
2018-05-14T04:02:20.763Z,99.77
2018-05-14T04:03:20.610Z,99.96
2018-05-14T04:04:20.651Z,99.99
2018-05-14T04:05:20.718Z,99.48
2018-05-14T04:06:19.923Z,99.48
2018-05-14T04:07:20.863Z,99.99
2018-05-14T04:08:20.633Z,99.96
2018-05-14T04:09:20.744Z,99.48
2018-05-14T04:10:20.277Z,99.87
2018-05-14T04:11:20.664Z,99.68
2018-05-14T04:12:20.732Z,99.39
2018-05-14T04:13:20.872Z,99.68
2018-05-14T04:14:20.745Z,99.68
2018-05-14T04:15:20.241Z,99.99
2018-05-14T04:16:20.243Z,99.99
2018-05-14T04:17:20.624Z,99.96
2018-05-14T04:18:20.599Z,99.87
2018-05-14T04:19:20.623Z,99.68
2018-05-14T04:20:20.600Z,99.99
2018-05-14T04:21:20.642Z,99.48
2018-05-14T04:22:20.595Z,99.01
2018-05-14T04:23:20.632Z,99.63
2018-05-14T04:24:20.683Z,99.87
2018-05-14T04:25:20.643Z,99.58
2018-05-14T04:26:20.662Z,99.99
2018-05-14T04:27:20.694Z,99.99
2018-05-14T04:28:20.631Z,99.77
2018-05-14T04:29:20.630Z,99.99
2018-05-14T04:30:20.747Z,99.87
2018-05-14T04:31:20.676Z,99.99
2018-05-14T04:32:20.714Z,99.99
2018-05-14T04:33:20.718Z,99.99
2018-05-14T04:34:20.742Z,99.99
2018-05-14T04:35:20.673Z,99.99
2018-05-14T04:36:20.723Z,99.99
2018-05-14T04:37:21.341Z,99.99
2018-05-14T04:38:20.670Z,99.99
2018-05-14T04:39:20.667Z,99.29
2018-05-14T04:40:20.685Z,99.01
2018-05-14T04:41:20.667Z,98.62
2018-05-14T04:42:20.921Z,98.62
2018-05-14T04:43:20.898Z,98.43
2018-05-14T04:44:20.318Z,99.01
2018-05-14T04:45:20.618Z,99.01
2018-05-14T04:46:20.584Z,98.86
2018-05-14T04:47:20.626Z,98.43
2018-05-14T04:48:20.596Z,99.68
2018-05-14T04:49:20.654Z,99.99
2018-05-14T04:50:20.571Z,99.99
2018-05-14T04:51:20.571Z,99.99
2018-05-14T04:52:20.651Z,99.96
2018-05-14T04:53:20.600Z,99.77
2018-05-14T04:54:20.590Z,99.68
2018-05-14T04:55:20.665Z,99.87
2018-05-14T04:56:20.607Z,99.99
2018-05-14T04:57:20.660Z,99.29
2018-05-14T04:58:20.659Z,98.81
2018-05-14T04:59:20.670Z,98.81
2018-05-14T05:00:20.680Z,98.62
2018-05-14T05:01:20.672Z,99.96
2018-05-14T05:02:20.665Z,99.77
2018-05-14T05:03:20.657Z,98.62
2018-05-14T05:04:20.678Z,99.29
2018-05-14T05:05:20.663Z,99.10
2018-05-14T05:06:20.935Z,98.81
2018-05-14T05:07:20.758Z,98.52
2018-05-14T05:08:20.814Z,98.05
2018-05-14T05:09:20.744Z,98.05
2018-05-14T05:10:20.821Z,98.72
2018-05-14T05:11:20.733Z,98.38
2018-05-14T05:12:20.715Z,98.24
2018-05-14T05:13:22.558Z,98.67
2018-05-14T05:14:20.980Z,98.72
2018-05-14T05:15:20.310Z,98.10
2018-05-14T05:16:20.732Z,98.05
2018-05-14T05:17:20.704Z,97.90
2018-05-14T05:18:20.688Z,98.00
2018-05-14T05:19:20.708Z,97.61
2018-05-14T05:20:20.714Z,97.61
2018-05-14T05:21:20.698Z,97.14
2018-05-14T05:22:20.724Z,97.33
2018-05-14T05:23:20.722Z,97.23
2018-05-14T05:24:20.756Z,97.23
2018-05-14T05:25:20.978Z,96.47
2018-05-14T05:26:20.725Z,97.33
2018-05-14T05:27:20.713Z,97.23
2018-05-14T05:28:20.802Z,97.09
2018-05-14T05:29:20.713Z,97.38
2018-05-14T05:30:20.938Z,96.51
2018-05-14T05:31:20.757Z,97.18
2018-05-14T05:32:20.884Z,97.56
2018-05-14T05:33:21.249Z,97.85
2018-05-14T05:34:22.483Z,98.05
2018-05-14T05:35:20.701Z,97.85
2018-05-14T05:36:20.808Z,97.76
2018-05-14T05:37:21.248Z,97.66
2018-05-14T05:38:20.920Z,97.56
2018-05-14T05:39:20.689Z,97.09
2018-05-14T05:40:20.738Z,97.61
2018-05-14T05:41:20.946Z,97.23
2018-05-14T05:42:20.259Z,96.75
2018-05-14T05:43:20.723Z,97.18
2018-05-14T05:44:20.719Z,96.80
2018-05-14T05:45:20.765Z,96.56
2018-05-14T05:46:20.734Z,96.08
2018-05-14T05:47:20.952Z,95.70
2018-05-14T05:48:20.950Z,96.47
2018-05-14T05:49:20.954Z,95.98
2018-05-14T05:50:20.665Z,96.27
2018-05-14T05:51:20.949Z,95.79
2018-05-14T05:52:20.678Z,95.70
2018-05-14T05:53:20.942Z,95.79
2018-05-14T05:54:22.950Z,95.70
2018-05-14T05:55:20.685Z,95.70
2018-05-14T05:56:20.750Z,95.60
2018-05-14T05:57:21.239Z,96.66
2018-05-14T05:58:21.404Z,95.89
2018-05-14T05:59:20.949Z,95.98
2018-05-14T06:00:21.008Z,96.08
2018-05-14T06:01:21.048Z,96.27
2018-05-14T06:02:20.684Z,96.03
2018-05-14T06:03:20.639Z,95.46
2018-05-14T06:04:20.950Z,95.36
2018-05-14T06:05:20.950Z,94.69
2018-05-14T06:06:20.766Z,94.31
2018-05-14T06:07:21.402Z,94.79
2018-05-14T06:08:22.669Z,95.17
2018-05-14T06:09:20.672Z,95.36
2018-05-14T06:10:20.955Z,94.59
2018-05-14T06:11:20.694Z,94.49
2018-05-14T06:12:20.955Z,94.79
2018-05-14T06:13:20.656Z,95.36
2018-05-14T06:14:20.705Z,95.17
2018-05-14T06:15:20.659Z,94.79
2018-05-14T06:16:20.991Z,94.98
2018-05-14T06:17:20.663Z,94.79
2018-05-14T06:18:20.662Z,94.49
2018-05-14T06:19:21.253Z,94.49
2018-05-14T06:20:20.953Z,94.98
2018-05-14T06:21:21.007Z,94.02
2018-05-14T06:22:20.741Z,94.02
2018-05-14T06:23:20.343Z,93.73
2018-05-14T06:24:20.603Z,93.82
2018-05-14T06:25:20.969Z,94.21
2018-05-14T06:26:20.916Z,93.92
2018-05-14T06:27:20.680Z,94.40
2018-05-14T06:28:20.970Z,93.87
2018-05-14T06:29:20.956Z,93.49
2018-05-14T06:30:21.264Z,93.49
2018-05-14T06:31:20.797Z,93.10
2018-05-14T06:32:21.264Z,92.63
2018-05-14T06:33:20.954Z,92.05
2018-05-14T06:34:20.971Z,92.43
2018-05-14T06:35:20.683Z,92.33
2018-05-14T06:36:20.922Z,92.91
2018-05-14T06:37:20.423Z,92.48
2018-05-14T06:38:20.973Z,92.72
2018-05-14T06:39:20.808Z,92.63
2018-05-14T06:40:21.269Z,92.10
2018-05-14T06:41:20.969Z,92.63
2018-05-14T06:42:20.753Z,92.96
2018-05-14T06:43:20.975Z,92.86
2018-05-14T06:44:21.037Z,93.06
2018-05-14T06:45:21.347Z,92.96
2018-05-14T06:46:20.972Z,92.58
2018-05-14T06:47:20.623Z,92.96
2018-05-14T06:48:20.963Z,93.15
2018-05-14T06:49:20.972Z,93.06
2018-05-14T06:50:20.967Z,92.96
2018-05-14T06:51:20.648Z,93.44
2018-05-14T06:52:22.489Z,94.12
2018-05-14T06:53:20.638Z,94.21
2018-05-14T06:54:20.970Z,93.82
2018-05-14T06:55:20.923Z,93.44
2018-05-14T06:56:20.964Z,92.68
2018-05-14T06:57:21.268Z,92.77
2018-05-14T06:58:20.958Z,92.77
2018-05-14T06:59:21.232Z,93.06
2018-05-14T07:00:20.971Z,92.63
2018-05-14T07:01:20.976Z,93.01
2018-05-14T07:02:20.974Z,93.01
2018-05-14T07:03:20.767Z,93.01
2018-05-14T07:04:21.019Z,93.10
2018-05-14T07:05:20.961Z,93.01
2018-05-14T07:07:20.752Z,92.91
2018-05-14T07:08:20.979Z,92.91
2018-05-14T07:09:20.982Z,93.01
2018-05-14T07:10:20.773Z,92.24
2018-05-14T07:11:21.279Z,93.20
2018-05-14T07:12:20.930Z,93.10
2018-05-14T07:13:20.681Z,92.72
2018-05-14T07:14:20.933Z,93.68
2018-05-14T07:15:21.290Z,92.82
2018-05-14T07:16:20.980Z,92.43
2018-05-14T07:17:20.721Z,92.05
2018-05-14T07:18:21.556Z,91.96
2018-05-14T07:19:21.018Z,91.19
2018-05-14T07:20:20.870Z,91.47
2018-05-14T07:21:20.935Z,91.66
2018-05-14T07:22:20.988Z,92.33
2018-05-14T07:23:20.691Z,92.53
2018-05-14T07:24:20.970Z,91.57
2018-05-14T07:25:20.937Z,91.66
2018-05-14T07:26:20.459Z,92.14
2018-05-14T07:27:21.115Z,92.14
2018-05-14T07:28:21.324Z,92.05
2018-05-14T07:29:20.828Z,92.24
2018-05-14T07:30:20.736Z,91.76
2018-05-14T07:31:20.466Z,91.86
2018-05-14T07:32:20.974Z,91.57
2018-05-14T07:33:20.963Z,91.38
2018-05-14T07:34:20.956Z,91.28
2018-05-14T07:35:20.995Z,90.13
2018-05-14T07:36:21.081Z,90.13
2018-05-14T07:37:20.950Z,90.70
2018-05-14T07:38:21.032Z,91.04
2018-05-14T07:39:20.838Z,90.46
2018-05-14T07:40:20.872Z,90.27
2018-05-14T07:41:21.413Z,90.56
2018-05-14T07:42:20.988Z,90.75
2018-05-14T07:43:20.991Z,90.56
2018-05-14T07:44:20.993Z,90.66
2018-05-14T07:45:21.214Z,90.75
2018-05-14T07:46:21.402Z,90.46
2018-05-14T07:47:20.734Z,90.66
2018-05-14T07:48:20.952Z,90.75
2018-05-14T07:49:21.033Z,90.84
2018-05-14T07:50:22.996Z,91.04
2018-05-14T07:51:21.464Z,91.33
2018-05-14T07:52:20.996Z,91.23
2018-05-14T07:53:20.992Z,90.37
2018-05-14T07:54:20.520Z,90.17
2018-05-14T07:55:21.360Z,90.27
2018-05-14T07:56:20.555Z,89.50
2018-05-14T07:57:23.005Z,88.87
2018-05-14T07:58:20.696Z,89.07
2018-05-14T07:59:20.738Z,88.78
2018-05-14T08:00:20.800Z,88.49
2018-05-14T08:01:20.448Z,88.78
2018-05-14T08:02:20.727Z,88.68
2018-05-14T08:03:20.713Z,88.68
2018-05-14T08:04:20.770Z,88.01
2018-05-14T08:05:21.294Z,88.49
2018-05-14T08:06:21.046Z,88.78
2018-05-14T08:07:20.976Z,87.82
2018-05-14T08:08:21.563Z,87.92
2018-05-14T08:09:20.720Z,87.53
2018-05-14T08:10:21.014Z,87.43
2018-05-14T08:11:20.959Z,87.62
2018-05-14T08:12:20.959Z,86.85
2018-05-14T08:13:20.899Z,86.85
2018-05-14T08:14:21.307Z,86.85
2018-05-14T08:15:21.203Z,87.29
2018-05-14T08:16:21.303Z,87.62
2018-05-14T08:17:20.795Z,86.38
2018-05-14T08:18:22.956Z,87.09
2018-05-14T08:19:20.692Z,86.76
2018-05-14T08:20:19.461Z,86.85
2018-05-14T08:21:20.981Z,87.43
2018-05-14T08:22:20.996Z,86.85
2018-05-14T08:23:20.756Z,86.61
2018-05-14T08:24:21.355Z,86.80
2018-05-14T08:25:21.152Z,87.19
2018-05-14T08:26:20.767Z,86.90
2018-05-14T08:27:21.011Z,86.13
2018-05-14T08:28:20.808Z,84.50
2018-05-14T08:29:20.961Z,83.06
2018-05-14T08:30:21.053Z,83.92
2018-05-14T08:31:20.824Z,83.53
2018-05-14T08:32:21.006Z,84.40
2018-05-14T08:33:22.377Z,85.46
2018-05-14T08:34:20.833Z,85.75
2018-05-14T08:35:21.467Z,86.22
2018-05-14T08:36:20.896Z,86.32
2018-05-14T08:37:21.461Z,84.98
2018-05-14T08:38:21.425Z,84.88
2018-05-14T08:39:21.491Z,85.46
2018-05-14T08:40:20.967Z,84.88
2018-05-14T08:41:20.971Z,84.88
2018-05-14T08:42:20.832Z,85.27
2018-05-14T08:43:20.980Z,84.98
2018-05-14T08:44:21.466Z,85.46
2018-05-14T08:45:21.321Z,85.46
2018-05-14T08:46:21.197Z,85.07
2018-05-14T08:47:20.973Z,85.36
2018-05-14T08:48:20.975Z,85.46
2018-05-14T08:49:20.830Z,85.55
2018-05-14T08:50:20.918Z,84.44
2018-05-14T08:51:21.317Z,84.83
2018-05-14T08:52:21.310Z,85.55
2018-05-14T08:53:20.991Z,84.73
2018-05-14T08:54:21.141Z,84.34
2018-05-14T08:55:21.032Z,85.21
2018-05-14T08:56:22.976Z,85.21
2018-05-14T08:57:20.970Z,84.83
2018-05-14T08:58:21.019Z,85.02
2018-05-14T08:59:21.203Z,85.50
2018-05-14T09:00:21.237Z,84.63
2018-05-14T09:01:20.979Z,84.83
2018-05-14T09:02:21.319Z,84.10
2018-05-14T09:03:21.223Z,84.10
2018-05-14T09:04:23.025Z,83.42
2018-05-14T09:05:21.814Z,83.14
2018-05-14T09:06:21.239Z,83.81
2018-05-14T09:07:21.524Z,82.85
2018-05-14T09:08:21.813Z,82.85
2018-05-14T09:09:21.519Z,82.37
2018-05-14T09:10:21.023Z,81.12
2018-05-14T09:11:21.487Z,81.12
2018-05-14T09:12:21.479Z,81.02
2018-05-14T09:14:21.485Z,82.17
2018-05-14T09:15:20.598Z,82.08
2018-05-14T09:16:21.283Z,82.65
2018-05-14T09:17:21.528Z,81.98
2018-05-14T09:18:21.492Z,82.31
2018-05-14T09:19:21.611Z,82.31
2018-05-14T09:20:21.525Z,80.96
2018-05-14T09:21:21.571Z,80.38
2018-05-14T09:22:21.528Z,80.19
2018-05-14T09:23:21.531Z,80.87
2018-05-14T09:24:21.271Z,80.58
2018-05-14T09:25:21.716Z,78.94
2018-05-14T09:26:21.835Z,80.58
2018-05-14T09:27:21.530Z,80.87
2018-05-14T09:28:21.531Z,81.93
2018-05-14T09:29:21.548Z,81.54
2018-05-14T09:30:21.250Z,81.54
2018-05-14T09:31:21.908Z,81.83
2018-05-14T09:32:21.362Z,79.23
2018-05-14T09:33:21.307Z,77.63
2018-05-14T09:34:21.485Z,77.69
2018-05-14T09:35:21.536Z,77.83
2018-05-14T09:36:21.317Z,78.79
2018-05-14T09:37:21.316Z,79.56
2018-05-14T09:38:21.593Z,79.17
2018-05-14T09:39:21.536Z,78.98
2018-05-14T09:40:23.062Z,79.36
2018-05-14T09:41:21.539Z,78.88
2018-05-14T09:42:21.590Z,78.69
2018-05-14T09:43:21.994Z,77.44
2018-05-14T09:44:21.256Z,78.59
2018-05-14T09:45:21.844Z,78.69
2018-05-14T09:46:21.584Z,76.67
2018-05-14T09:47:22.499Z,75.90
2018-05-14T09:48:21.884Z,76.38
2018-05-14T09:49:21.247Z,76.38
2018-05-14T09:50:21.596Z,75.45
2018-05-14T09:51:21.970Z,75.36
2018-05-14T09:52:21.539Z,75.07
2018-05-14T09:53:23.077Z,75.84
2018-05-14T09:54:21.317Z,73.82
2018-05-14T09:55:21.872Z,72.66
2018-05-14T09:56:21.966Z,71.79
2018-05-14T09:57:21.880Z,72.56
2018-05-14T09:58:21.574Z,73.24
2018-05-14T09:59:20.681Z,72.85
2018-05-14T10:00:21.000Z,71.98
2018-05-14T10:01:21.866Z,72.75
2018-05-14T10:02:21.557Z,72.08
2018-05-14T10:03:22.333Z,71.02
2018-05-14T10:04:23.031Z,70.73
2018-05-14T10:05:21.991Z,71.50
2018-05-14T10:06:21.945Z,72.66
2018-05-14T10:07:21.553Z,71.89
2018-05-14T10:08:21.504Z,71.89
2018-05-14T10:09:20.677Z,72.47
2018-05-14T10:10:21.585Z,72.27
2018-05-14T10:11:21.257Z,72.31
2018-05-14T10:12:21.523Z,70.38
2018-05-14T10:13:21.838Z,70.86
2018-05-14T10:14:21.540Z,72.21
2018-05-14T10:15:21.502Z,71.92
2018-05-14T10:16:21.804Z,71.64
2018-05-14T10:17:21.332Z,71.54
2018-05-14T10:18:21.557Z,70.76
2018-05-14T10:19:21.591Z,71.15
2018-05-14T10:20:21.985Z,70.22
2018-05-14T10:21:21.337Z,70.22
2018-05-14T10:22:22.668Z,70.22
2018-05-14T10:24:21.554Z,70.42
2018-05-14T10:25:21.951Z,70.42
2018-05-14T10:26:23.290Z,69.16
2018-05-14T10:27:21.508Z,68.39
2018-05-14T10:28:21.556Z,69.93
2018-05-14T10:29:21.516Z,71.32
2018-05-14T10:30:21.488Z,72.06
2018-05-14T10:31:21.516Z,71.86
2018-05-14T10:32:21.061Z,72.67
2018-05-14T10:33:21.965Z,72.19
2018-05-14T10:34:21.511Z,70.64
2018-05-14T10:35:21.554Z,70.74
2018-05-14T10:36:21.992Z,70.94
2018-05-14T10:37:21.864Z,70.84
2018-05-14T10:38:21.315Z,70.36
2018-05-14T10:39:21.560Z,69.81
2018-05-14T10:40:21.292Z,69.81
2018-05-14T10:41:21.307Z,68.94
2018-05-14T10:42:21.285Z,69.32
2018-05-14T10:43:21.110Z,68.07
2018-05-14T10:44:21.302Z,65.85
2018-05-14T10:45:21.619Z,67.78
2018-05-14T10:46:22.308Z,67.97
2018-05-14T10:47:21.616Z,67.91
2018-05-14T10:48:21.529Z,68.10
2018-05-14T10:49:21.259Z,68.10
2018-05-14T10:50:21.293Z,67.62
2018-05-14T10:51:21.261Z,67.14
2018-05-14T10:52:21.300Z,64.53
2018-05-14T10:53:21.605Z,66.33
2018-05-14T10:54:21.554Z,65.30
2018-05-14T10:55:21.576Z,65.30
2018-05-14T10:56:21.520Z,66.17
2018-05-14T10:57:21.655Z,66.85
2018-05-14T10:58:21.306Z,65.11
2018-05-14T10:59:21.525Z,65.20
2018-05-14T11:00:21.369Z,63.40
2018-05-14T11:01:21.963Z,62.44
2018-05-14T11:02:21.826Z,60.02
2018-05-14T11:03:21.571Z,60.89
2018-05-14T11:04:21.600Z,59.34
2018-05-14T11:05:20.939Z,58.70
2018-05-14T11:06:21.571Z,60.34
2018-05-14T11:07:21.563Z,60.34
2018-05-14T11:08:21.294Z,59.18
2018-05-14T11:09:21.531Z,61.02
2018-05-14T11:10:21.292Z,61.02
2018-05-14T11:11:21.277Z,61.30
2018-05-14T11:12:21.570Z,62.08
2018-05-14T11:13:21.525Z,61.53
2018-05-14T11:14:21.912Z,60.85
2018-05-14T11:15:21.614Z,60.27
2018-05-14T11:16:21.579Z,59.89
2018-05-14T11:17:21.579Z,59.53
2018-05-14T11:18:21.285Z,60.21
2018-05-14T11:19:21.449Z,61.27
2018-05-14T11:20:21.378Z,61.27
2018-05-14T11:21:21.311Z,61.27
2018-05-14T11:22:23.641Z,59.75
2018-05-14T11:23:21.036Z,58.78
2018-05-14T11:24:21.390Z,56.56
2018-05-14T11:25:21.306Z,56.85
2018-05-14T11:26:21.630Z,55.88
2018-05-14T11:27:22.087Z,55.68
2018-05-14T11:28:21.295Z,55.68
2018-05-14T11:29:22.074Z,53.67
2018-05-14T11:30:21.592Z,53.58
2018-05-14T11:31:21.582Z,55.06
2018-05-14T11:32:22.043Z,53.70
2018-05-14T11:33:21.166Z,53.99
2018-05-14T11:34:21.548Z,52.64
2018-05-14T11:35:21.937Z,54.58
2018-05-14T11:36:21.359Z,52.83
2018-05-14T11:37:21.635Z,52.18
2018-05-14T11:38:21.899Z,50.72
2018-05-14T11:39:21.512Z,52.47
2018-05-14T11:40:21.896Z,52.30
2018-05-14T11:41:21.594Z,50.16
2018-05-14T11:42:21.801Z,50.65
2018-05-14T11:43:21.898Z,50.46
2018-05-14T11:44:43.097Z,49.19
2018-05-14T11:45:21.447Z,50.26
2018-05-14T11:46:21.568Z,49.19
2018-05-14T11:47:21.047Z,48.61
2018-05-14T11:48:25.142Z,46.96
2018-05-14T11:49:21.596Z,47.28
2018-05-14T11:50:21.603Z,46.89
2018-05-14T11:51:22.074Z,45.82
2018-05-14T11:52:21.133Z,46.01
2018-05-14T11:53:21.993Z,45.14
2018-05-14T11:54:21.385Z,44.97
2018-05-14T11:55:22.140Z,45.38
2018-05-14T11:56:22.000Z,43.82
2018-05-14T11:57:22.174Z,44.82
2018-05-14T11:58:21.908Z,45.21
2018-05-14T11:59:21.892Z,43.15
2018-05-14T12:00:22.061Z,43.55
2018-05-14T12:01:22.602Z,44.74
2018-05-14T12:02:22.102Z,43.99
2018-05-14T12:03:22.107Z,43.19
2018-05-14T12:04:22.107Z,42.63
2018-05-14T12:05:22.107Z,43.71
2018-05-14T12:06:22.102Z,41.77
2018-05-14T12:07:21.608Z,42.57
2018-05-14T12:08:22.394Z,42.79
2018-05-14T12:09:22.061Z,41.60
2018-05-14T12:10:22.118Z,39.94
2018-05-14T12:11:21.618Z,38.34
2018-05-14T12:12:22.450Z,39.41
2018-05-14T12:13:22.500Z,39.80
2018-05-14T12:14:22.137Z,39.82
2018-05-14T12:15:22.124Z,39.06
2018-05-14T12:16:21.575Z,39.67
2018-05-14T12:17:21.845Z,39.18
2018-05-14T12:18:22.101Z,38.73
2018-05-14T12:19:24.463Z,37.35
2018-05-14T12:20:21.956Z,37.70
2018-05-14T12:21:21.866Z,37.81
2018-05-14T12:22:22.488Z,37.79
2018-05-14T12:23:21.842Z,37.63
2018-05-14T12:24:22.109Z,37.45
2018-05-14T12:25:22.119Z,38.04
2018-05-14T12:26:22.113Z,37.65
2018-05-14T12:27:22.173Z,38.18
2018-05-14T12:28:22.119Z,35.53
2018-05-14T12:29:21.899Z,35.55
2018-05-14T12:30:23.635Z,35.56
2018-05-14T12:31:22.469Z,35.27
2018-05-14T12:32:21.592Z,35.48
2018-05-14T12:33:22.118Z,34.60
2018-05-14T12:34:21.822Z,34.11
2018-05-14T12:35:22.074Z,35.09
2018-05-14T12:36:22.651Z,33.43
2018-05-14T12:37:22.083Z,33.22
2018-05-14T12:38:22.124Z,33.92
2018-05-14T12:39:21.838Z,34.03
2018-05-14T12:40:22.123Z,33.61
2018-05-14T12:41:21.868Z,33.50
2018-05-14T12:42:22.127Z,34.13
2018-05-14T12:43:22.034Z,32.35
2018-05-14T12:44:21.851Z,32.35
2018-05-14T12:45:22.109Z,31.25
2018-05-14T12:46:22.126Z,31.92
2018-05-14T12:47:22.445Z,32.31
2018-05-14T12:48:21.889Z,33.31
2018-05-14T12:49:21.871Z,32.97
2018-05-14T12:50:22.473Z,32.19
2018-05-14T12:51:22.102Z,32.30
2018-05-14T12:52:21.718Z,31.21
2018-05-14T12:53:22.669Z,32.09
2018-05-14T12:54:22.658Z,32.50
2018-05-14T12:55:22.134Z,30.46
2018-05-14T12:56:22.704Z,30.67
2018-05-14T12:57:22.541Z,30.12
2018-05-14T12:58:22.411Z,32.40
2018-05-14T12:59:22.341Z,31.01
2018-05-14T13:00:22.690Z,31.14
2018-05-14T13:01:22.397Z,30.44
2018-05-14T13:02:22.952Z,30.19
2018-05-14T13:03:22.562Z,31.07
2018-05-14T13:04:22.962Z,28.69
2018-05-14T13:05:22.635Z,30.78
2018-05-14T13:06:22.591Z,29.60
2018-05-14T13:07:22.590Z,28.91
2018-05-14T13:08:22.411Z,29.43
2018-05-14T13:09:22.635Z,28.72
2018-05-14T13:10:22.946Z,29.60
2018-05-14T13:11:22.491Z,28.50
2018-05-14T13:12:22.598Z,29.77
2018-05-14T13:13:22.939Z,29.68
2018-05-14T13:14:22.646Z,29.41
2018-05-14T13:15:22.675Z,28.25
2018-05-14T13:16:22.612Z,28.06
2018-05-14T13:17:23.187Z,27.55
2018-05-14T13:18:23.101Z,28.83
2018-05-14T13:19:24.441Z,28.16
2018-05-14T13:20:23.121Z,27.59
2018-05-14T13:21:22.637Z,27.28
2018-05-14T13:22:22.677Z,27.77
2018-05-14T13:23:22.650Z,27.70
2018-05-14T13:24:22.963Z,26.51
2018-05-14T13:25:23.106Z,26.69
2018-05-14T13:26:25.208Z,26.98
2018-05-14T13:27:22.334Z,27.19
2018-05-14T13:28:22.861Z,26.90
2018-05-14T13:29:22.880Z,26.01
2018-05-14T13:30:22.865Z,26.78
2018-05-14T13:31:23.209Z,26.24
2018-05-14T13:32:23.385Z,25.26
2018-05-14T13:33:23.108Z,25.82
2018-05-14T13:34:23.476Z,26.03